Weather at Cabo San Lucas International Airport

Public forecast

Using degrees Celsius for public forecast. Weather courtesy of forecast.io.

Current aviation weather report (METAR) for Cabo San Lucas International Airport

Report is more than 6 hours old.

Retrieved 2022/01/17 02:40 UTC (7 hours ago):

MMSL 170240Z 00000KT 7SM SKC 22/19 A3003

Aviation forecast (TAF) for Cabo San Lucas International Airport

Retrieved 2022/01/17 06:57 UTC (3 hours ago):

TAF MMSL 170457Z 1706/1806 30005KT P6SM SKC FM171600 16012KT P6SM SCT250 FM180300 30005KT P6SM SCT250